createdAt,value
2019-01-02T00:03:41.996Z,5.20
2019-01-02T00:08:43.890Z,4.27
2019-01-02T00:13:45.937Z,4.93
2019-01-02T00:18:47.821Z,4.60
2019-01-02T00:23:49.809Z,4.13
2019-01-02T00:28:52.058Z,5.80
2019-01-02T00:33:54.244Z,5.17
2019-01-02T00:38:56.662Z,5.90
2019-01-02T00:43:58.703Z,6.83
2019-01-02T00:49:00.722Z,6.00
2019-01-02T00:54:02.949Z,6.13
2019-01-02T00:59:04.871Z,7.07
2019-01-02T01:04:06.882Z,5.13
2019-01-02T01:09:08.953Z,6.07
2019-01-02T01:14:12.481Z,6.30
2019-01-02T01:19:14.371Z,5.63
2019-01-02T01:24:16.328Z,6.10
2019-01-02T01:29:18.252Z,8.37
2019-01-02T01:34:20.239Z,6.47
2019-01-02T01:39:22.145Z,6.40
2019-01-02T01:44:24.065Z,6.67
2019-01-02T01:49:26.562Z,6.00
2019-01-02T01:54:28.496Z,6.07
2019-01-02T01:59:30.680Z,6.67
2019-01-02T02:04:32.610Z,6.63
2019-01-02T02:09:34.805Z,5.37
2019-01-02T02:14:36.732Z,6.33
2019-01-02T02:19:38.614Z,5.83
2019-01-02T02:24:40.808Z,6.00
2019-01-02T02:29:43.017Z,4.77
2019-01-02T02:34:44.910Z,5.40
2019-01-02T02:39:46.799Z,6.30
2019-01-02T02:44:49.008Z,7.47
2019-01-02T02:49:51.307Z,7.27
2019-01-02T02:54:53.278Z,6.77
2019-01-02T02:59:55.211Z,5.80
2019-01-02T03:04:57.209Z,5.57
2019-01-02T03:09:59.499Z,7.50
2019-01-02T03:15:02.258Z,6.17
2019-01-02T03:20:05.116Z,6.70
2019-01-02T03:25:08.623Z,6.80
2019-01-02T03:30:13.490Z,8.73
2019-01-02T03:35:15.908Z,6.40
2019-01-02T03:40:17.816Z,5.83
2019-01-02T03:45:19.739Z,6.37
2019-01-02T03:50:21.735Z,7.03
2019-01-02T03:55:23.780Z,8.90
2019-01-02T04:00:26.100Z,5.23
2019-01-02T04:05:28.031Z,6.83
2019-01-02T04:10:29.969Z,7.20
2019-01-02T04:15:32.088Z,5.97
2019-01-02T04:20:33.978Z,6.83
2019-01-02T04:25:35.894Z,6.07
2019-01-02T04:30:37.843Z,6.77
2019-01-02T04:35:39.784Z,6.43
2019-01-02T04:40:41.730Z,5.70
2019-01-02T04:45:43.632Z,7.27
2019-01-02T04:50:45.545Z,7.00
2019-01-02T04:55:47.478Z,7.03
2019-01-02T05:00:49.566Z,5.60
2019-01-02T05:05:51.756Z,5.77
2019-01-02T05:10:53.893Z,7.23
2019-01-02T05:15:55.800Z,6.07
2019-01-02T05:20:57.707Z,7.43
2019-01-02T05:25:59.634Z,6.90
2019-01-02T05:31:01.663Z,5.17
2019-01-02T05:36:03.571Z,6.37
2019-01-02T05:41:05.486Z,5.87
2019-01-02T05:46:07.392Z,5.27
2019-01-02T05:51:09.291Z,5.93
2019-01-02T05:56:11.219Z,4.27
2019-01-02T06:01:14.129Z,5.17
2019-01-02T06:06:16.088Z,5.77
2019-01-02T06:11:18.299Z,5.10
2019-01-02T06:16:20.307Z,4.70
2019-01-02T06:21:22.218Z,4.47
2019-01-02T06:26:24.163Z,3.87
2019-01-02T06:31:26.195Z,4.70
2019-01-02T06:36:29.336Z,4.27
2019-01-02T06:41:31.257Z,4.13
2019-01-02T06:46:33.865Z,3.40
2019-01-02T06:51:35.760Z,3.87
2019-01-02T06:56:37.846Z,4.03
2019-01-02T07:01:39.867Z,4.30
2019-01-02T07:06:41.759Z,4.13
2019-01-02T07:11:43.919Z,4.87
2019-01-02T07:16:45.818Z,4.50
2019-01-02T07:21:47.746Z,4.27
2019-01-02T07:26:49.793Z,4.13
2019-01-02T07:31:51.966Z,4.30
2019-01-02T07:37:27.428Z,4.73
2019-01-02T07:43:10.443Z,4.23
2019-01-02T07:48:52.742Z,4.63
2019-01-02T07:54:52.372Z,3.60
2019-01-02T08:00:44.055Z,3.13
2019-01-02T08:06:50.675Z,3.70
2019-01-02T08:12:23.008Z,3.17
2019-01-02T08:17:59.460Z,4.13
2019-01-02T08:23:49.451Z,3.73
2019-01-02T08:29:42.156Z,3.87
2019-01-02T08:35:40.110Z,3.83
2019-01-02T08:41:15.595Z,3.77
2019-01-02T08:46:53.821Z,3.77
2019-01-02T08:52:37.639Z,3.17
2019-01-02T08:58:22.921Z,3.70
2019-01-02T09:03:40.777Z,3.27
2019-01-02T09:09:30.275Z,3.30
2019-01-02T09:14:56.388Z,4.53
2019-01-02T09:20:33.713Z,3.37
2019-01-02T09:26:06.456Z,2.87
2019-01-02T09:31:28.370Z,2.27
2019-01-02T09:37:10.815Z,2.30
2019-01-02T09:42:59.840Z,2.17
2019-01-02T09:48:30.633Z,2.50
2019-01-02T09:53:57.616Z,2.50
2019-01-02T09:59:36.584Z,2.30
2019-01-02T10:05:18.957Z,2.33
2019-01-02T10:10:51.502Z,2.30
2019-01-02T10:16:09.519Z,1.90
2019-01-02T10:21:31.078Z,1.53
2019-01-02T10:27:09.418Z,2.80
2019-01-02T10:32:38.906Z,2.40
2019-01-02T10:38:10.991Z,2.53
2019-01-02T10:43:50.297Z,2.10
2019-01-02T10:49:18.697Z,2.17
2019-01-02T10:54:47.776Z,2.17
2019-01-02T11:00:09.860Z,2.13
2019-01-02T11:06:06.236Z,2.13
2019-01-02T11:11:21.483Z,2.27
2019-01-02T11:16:52.403Z,2.40
2019-01-02T11:22:06.259Z,2.30
2019-01-02T11:28:04.290Z,2.03
2019-01-02T11:33:26.298Z,1.90
2019-01-02T11:38:48.652Z,2.30
2019-01-02T11:44:22.206Z,1.70
2019-01-02T11:49:24.117Z,1.60
2019-01-02T11:54:26.002Z,1.70
2019-01-02T11:59:27.930Z,1.73
2019-01-02T12:04:29.857Z,2.00
2019-01-02T12:09:31.745Z,2.03
2019-01-02T12:14:33.701Z,1.63
2019-01-02T12:19:35.862Z,1.93
2019-01-02T12:24:37.783Z,4.77
2019-01-02T12:29:39.749Z,1.63
2019-01-02T12:34:41.790Z,1.57
2019-01-02T12:39:43.679Z,1.63
2019-01-02T12:44:45.600Z,1.70
2019-01-02T12:49:47.519Z,1.53
2019-01-02T12:54:49.414Z,1.87
2019-01-02T12:59:51.428Z,2.03
2019-01-02T13:05:31.604Z,1.63
2019-01-02T13:10:41.060Z,1.47
2019-01-02T13:16:26.090Z,1.63
2019-01-02T13:21:49.928Z,1.50
2019-01-02T13:27:38.621Z,2.00
2019-01-02T13:32:57.420Z,1.23
2019-01-02T13:38:41.212Z,1.60
2019-01-02T13:44:09.735Z,1.77
2019-01-02T13:50:01.306Z,1.37
2019-01-02T13:55:07.685Z,1.50
2019-01-02T14:00:09.944Z,1.90
2019-01-02T14:05:15.205Z,1.40
2019-01-02T14:10:17.122Z,1.83
2019-01-02T14:15:19.098Z,1.50
2019-01-02T14:20:21.005Z,1.50
2019-01-02T14:25:22.957Z,1.70
2019-01-02T14:30:24.865Z,1.37
2019-01-02T14:35:26.972Z,1.70
2019-01-02T14:40:28.876Z,2.10
2019-01-02T14:45:31.115Z,2.33
2019-01-02T14:50:33.025Z,2.33
2019-01-02T14:55:35.265Z,2.50
2019-01-02T15:00:37.210Z,1.60
2019-01-02T15:05:39.118Z,1.93
2019-01-02T15:10:41.036Z,2.40
2019-01-02T15:15:43.479Z,2.07
2019-01-02T15:20:45.627Z,2.57
2019-01-02T15:25:47.600Z,2.17
2019-01-02T15:30:49.614Z,2.10
2019-01-02T15:35:51.525Z,2.33
2019-01-02T15:40:53.473Z,2.30
2019-01-02T15:45:55.396Z,2.50
2019-01-02T15:50:57.342Z,3.03
2019-01-02T15:55:59.359Z,2.63
2019-01-02T16:01:01.360Z,2.10
2019-01-02T16:06:04.424Z,2.30
2019-01-02T16:11:06.334Z,2.80
2019-01-02T16:16:10.134Z,2.70
2019-01-02T16:21:12.088Z,3.10
2019-01-02T16:26:14.012Z,2.30
2019-01-02T16:31:15.934Z,1.80
2019-01-02T16:36:17.877Z,1.63
2019-01-02T16:41:19.788Z,2.20
2019-01-02T16:46:21.730Z,1.97
2019-01-02T16:51:23.637Z,2.10
2019-01-02T16:56:25.587Z,1.83
2019-01-02T17:01:27.597Z,2.23
2019-01-02T17:06:29.500Z,2.20
2019-01-02T17:11:32.127Z,1.83
2019-01-02T17:16:34.111Z,2.00
2019-01-02T17:21:36.011Z,2.30
2019-01-02T17:26:37.958Z,2.13
2019-01-02T17:31:39.938Z,2.03
2019-01-02T17:36:42.199Z,1.80
2019-01-02T17:41:44.128Z,1.80
2019-01-02T17:46:46.185Z,1.93
2019-01-02T17:51:48.090Z,2.13
2019-01-02T17:56:50.059Z,2.27
2019-01-02T18:01:52.992Z,1.73
2019-01-02T18:06:54.890Z,1.73
2019-01-02T18:11:56.845Z,2.00
2019-01-02T18:16:58.780Z,1.90
2019-01-02T18:22:00.681Z,2.30
2019-01-02T18:27:02.917Z,2.10
2019-01-02T18:32:04.888Z,1.67
2019-01-02T18:37:06.795Z,1.90
2019-01-02T18:42:08.826Z,1.90
2019-01-02T18:47:10.743Z,1.70
2019-01-02T18:52:12.644Z,2.00
2019-01-02T18:57:15.078Z,2.20
2019-01-02T19:02:16.979Z,1.73
2019-01-02T19:07:18.881Z,2.03
2019-01-02T19:12:20.799Z,1.63
2019-01-02T19:17:22.730Z,1.87
2019-01-02T19:22:24.679Z,1.90
2019-01-02T19:27:26.619Z,2.50
2019-01-02T19:32:28.570Z,2.33
2019-01-02T19:37:30.636Z,1.80
2019-01-02T19:42:32.565Z,2.10
2019-01-02T19:47:34.505Z,2.43
2019-01-02T19:52:36.447Z,2.20
2019-01-02T19:57:38.343Z,2.20
2019-01-02T20:02:40.243Z,2.00
2019-01-02T20:07:42.177Z,2.23
2019-01-02T20:12:44.559Z,2.30
2019-01-02T20:24:16.654Z,2.17
2019-01-02T20:29:18.566Z,2.00
2019-01-02T20:34:20.510Z,1.67
2019-01-02T20:39:22.419Z,1.80
2019-01-02T20:44:24.334Z,2.00
2019-01-02T20:49:26.657Z,2.30
2019-01-02T20:54:28.575Z,1.93
2019-01-02T20:59:30.490Z,2.30
2019-01-02T21:04:32.409Z,1.93
2019-01-02T21:09:34.315Z,2.57
2019-01-02T21:14:36.519Z,3.10
2019-01-02T21:19:38.519Z,2.73
2019-01-02T21:24:40.761Z,2.93
2019-01-02T21:29:42.671Z,2.77
2019-01-02T21:34:44.589Z,2.00
2019-01-02T21:39:46.511Z,2.70
2019-01-02T21:44:49.447Z,1.87
2019-01-02T21:49:51.523Z,2.60
2019-01-02T21:54:53.539Z,3.97
2019-01-02T21:59:55.448Z,2.03
2019-01-02T22:04:57.378Z,2.90
2019-01-02T22:09:59.284Z,2.70
2019-01-02T22:15:01.208Z,2.93
2019-01-02T22:20:03.677Z,3.10
2019-01-02T22:25:06.359Z,2.63
2019-01-02T22:30:08.616Z,2.80
2019-01-02T22:35:10.616Z,2.57
2019-01-02T22:40:12.529Z,3.23
2019-01-02T22:45:14.620Z,2.30
2019-01-02T22:50:16.574Z,2.33
2019-01-02T22:55:18.483Z,2.63
2019-01-02T23:00:38.893Z,2.30
2019-01-02T23:06:00.310Z,2.30
2019-01-02T23:11:20.387Z,3.00
2019-01-02T23:16:58.932Z,2.90
2019-01-02T23:22:19.727Z,3.30
2019-01-02T23:27:46.936Z,2.60
2019-01-02T23:33:11.533Z,2.83
2019-01-02T23:38:31.901Z,2.90
2019-01-02T23:43:54.751Z,2.63
2019-01-02T23:49:15.326Z,2.83
